Time;durP1;ratioP1;P1;durP2;ratioP2;P2;SDS_P1;SDS_P2;PMS_P1;PMS_P2;Temp;Humidity;BMP_temperature;BMP_pressure;BME280_temperature;BME280_humidity;BME280_pressure;Samples;Min_cycle;Max_cycle;Signal;HPM_P1;HPM_P2
2022/11/27 00:04:24;;;;;;;9.15;3.60;;;;;;;4.97;100.00;102201.72;10414068;28;20323;-67
2022/11/27 00:09:25;;;;;;;11.35;3.63;;;;;;;4.95;100.00;102208.59;10413711;28;20054;-69
2022/11/27 00:14:30;;;;;;;11.00;4.20;;;;;;;4.85;100.00;102206.00;10413787;28;20046;-67
2022/11/27 00:19:31;;;;;;;11.25;4.05;;;;;;;4.74;100.00;102197.34;10413222;28;20135;-68
2022/11/27 00:24:33;;;;;;;13.93;4.03;;;;;;;4.60;100.00;102193.00;10411107;28;20045;-68
2022/11/27 00:29:36;;;;;;;7.07;3.53;;;;;;;4.48;100.00;102178.25;10412765;28;20316;-66
2022/11/27 00:34:38;;;;;;;10.23;4.28;;;;;;;4.35;100.00;102182.50;10412630;28;20368;-65
2022/11/27 00:39:40;;;;;;;7.22;3.72;;;;;;;4.31;100.00;102170.44;10412702;28;20071;-67
2022/11/27 00:44:43;;;;;;;17.60;4.20;;;;;;;4.27;100.00;102171.25;10412635;28;20067;-66
2022/11/27 00:49:45;;;;;;;7.13;3.83;;;;;;;4.14;100.00;102164.31;10412116;28;20609;-66
2022/11/27 00:54:48;;;;;;;8.07;3.58;;;;;;;4.19;100.00;102162.59;10410104;28;20083;-67
2022/11/27 00:59:51;;;;;;;12.65;3.70;;;;;;;4.09;100.00;102154.81;10411936;28;20540;-66
2022/11/27 01:04:53;;;;;;;10.40;3.53;;;;;;;4.03;100.00;102141.84;10411806;28;20107;-66
2022/11/27 01:09:54;;;;;;;8.88;3.20;;;;;;;3.95;100.00;102140.94;10411595;28;20050;-66
2022/11/27 01:14:58;;;;;;;11.40;4.15;;;;;;;3.85;100.00;102127.97;10411977;28;20049;-65
2022/11/27 01:19:59;;;;;;;12.52;3.90;;;;;;;3.91;100.00;102119.41;10411755;28;20053;-67
2022/11/27 01:25:02;;;;;;;6.13;2.90;;;;;;;4.05;100.00;102122.06;10409504;28;20062;-66
2022/11/27 01:30:08;;;;;;;12.57;4.30;;;;;;;3.91;100.00;102131.44;10411469;28;20132;-65
2022/11/27 01:35:09;;;;;;;9.07;3.42;;;;;;;3.93;100.00;102127.16;10411426;28;20099;-67
2022/11/27 01:40:12;;;;;;;12.37;4.60;;;;;;;4.02;100.00;102105.66;10411748;28;20049;-67
2022/11/27 01:45:19;;;;;;;8.85;3.88;;;;;;;4.11;100.00;102096.25;10417974;28;20077;-66
2022/11/27 01:50:24;;;;;;;4.30;2.67;;;;;;;4.18;100.00;102093.69;10419215;28;20111;-69
2022/11/27 01:55:32;;;;;;;6.78;4.03;;;;;;;4.21;100.00;102101.47;10416566;28;20091;-67
2022/11/27 02:00:36;;;;;;;6.63;3.75;;;;;;;4.22;100.00;102064.44;10418808;28;20132;-66
2022/11/27 02:05:38;;;;;;;5.65;3.83;;;;;;;4.12;100.00;102048.91;10418484;28;20091;-66
2022/11/27 02:10:50;;;;;;;11.75;4.40;;;;;;;4.02;100.00;102048.84;10418128;28;20177;-67
2022/11/27 02:16:09;;;;;;;16.42;4.40;;;;;;;3.93;100.00;102041.94;10418174;28;20057;-67
2022/11/27 02:21:20;;;;;;;9.93;3.97;;;;;;;3.78;100.00;102035.81;10415809;28;20050;-66
2022/11/27 02:27:18;;;;;;;11.68;4.18;;;;;;;3.67;100.00;102022.00;10418072;28;20072;-65
2022/11/27 02:32:29;;;;;;;7.38;4.05;;;;;;;3.59;100.00;102020.22;10410400;28;20083;-66
2022/11/27 02:37:39;;;;;;;12.65;4.72;;;;;;;3.59;100.00;102020.22;10417124;28;20119;-66
2022/11/27 02:42:49;;;;;;;13.35;4.40;;;;;;;3.67;100.00;102003.91;10416933;28;20061;-67
2022/11/27 02:47:52;;;;;;;10.63;4.35;;;;;;;3.73;100.00;101998.81;10416687;28;20067;-67
2022/11/27 02:53:13;;;;;;;6.53;2.97;;;;;;;3.82;100.00;101996.25;10414294;28;20084;-68
2022/11/27 02:58:20;;;;;;;11.63;3.53;;;;;;;4.03;100.00;102004.94;10416142;28;20505;-65
2022/11/27 03:03:35;;;;;;;15.07;4.10;;;;;;;3.92;100.00;102009.19;10416475;28;20054;-67
2022/11/27 03:08:45;;;;;;;9.50;3.92;;;;;;;3.89;100.00;102022.09;10415984;28;20105;-64
2022/11/27 03:13:55;;;;;;;7.20;3.63;;;;;;;3.91;100.00;102018.69;10415900;28;20480;-67
2022/11/27 03:19:12;;;;;;;8.77;3.47;;;;;;;3.96;100.00;102018.69;10415897;28;20049;-67
2022/11/27 03:24:14;;;;;;;15.13;4.20;;;;;;;4.03;100.00;101989.44;10413243;28;20528;-68
2022/11/27 03:29:23;;;;;;;6.97;3.90;;;;;;;4.11;100.00;101992.91;10415002;28;20095;-71
2022/11/27 03:34:26;;;;;;;9.88;4.13;;;;;;;4.07;100.00;102006.66;10415214;28;20049;-67
2022/11/27 03:39:30;;;;;;;7.55;3.95;;;;;;;4.09;100.00;101998.94;10414855;28;20062;-66
2022/11/27 03:44:46;;;;;;;8.32;3.83;;;;;;;4.06;100.00;101981.69;10414514;28;20122;-66
2022/11/27 03:50:13;;;;;;;8.38;2.88;;;;;;;4.08;100.00;101969.63;10414012;28;20079;-69
2022/11/27 03:55:27;;;;;;;5.30;3.60;;;;;;;4.09;100.00;101979.13;10411799;28;20064;-68
2022/11/27 04:00:34;;;;;;;4.45;2.58;;;;;;;4.14;100.00;101971.38;10414004;28;20065;-67
2022/11/27 04:05:38;;;;;;;7.30;2.85;;;;;;;4.16;100.00;101968.78;10413273;28;20107;-67
2022/11/27 04:10:39;;;;;;;10.93;3.38;;;;;;;4.21;100.00;101957.59;10413801;28;20331;-67
2022/11/27 04:15:41;;;;;;;8.18;3.65;;;;;;;4.26;100.00;101973.13;10413512;28;20126;-67
2022/11/27 04:20:44;;;;;;;6.00;2.60;;;;;;;4.28;100.00;101983.47;10414036;28;20075;-69
2022/11/27 04:25:47;;;;;;;3.00;1.85;;;;;;;4.27;100.00;101987.78;10410741;28;20497;-68
2022/11/27 04:30:53;;;;;;;9.65;3.33;;;;;;;4.29;100.00;101980.03;10413078;28;20155;-68
2022/11/27 04:35:56;;;;;;;4.07;2.92;;;;;;;4.19;100.00;101979.16;10412243;28;20045;-67
2022/11/27 04:40:58;;;;;;;6.90;3.35;;;;;;;4.15;100.00;101974.81;10412395;28;20108;-67
2022/11/27 04:45:59;;;;;;;6.15;3.15;;;;;;;4.18;100.00;101973.09;10412132;28;20052;-68
2022/11/27 04:51:02;;;;;;;6.57;2.97;;;;;;;4.15;100.00;101961.91;10410902;28;20087;-66
2022/11/27 04:56:05;;;;;;;3.22;2.75;;;;;;;4.16;100.00;101953.28;10410782;28;20095;-67
2022/11/27 05:01:08;;;;;;;6.70;3.55;;;;;;;4.17;100.00;101949.88;10411874;28;20061;-68
2022/11/27 05:06:11;;;;;;;5.20;3.00;;;;;;;4.19;100.00;101948.13;10411713;28;20046;-67
2022/11/27 05:11:15;;;;;;;9.20;3.03;;;;;;;4.27;100.00;101930.06;10412098;28;20053;-67
2022/11/27 05:16:18;;;;;;;6.47;3.10;;;;;;;4.22;100.00;101919.72;10411275;28;20045;-66
2022/11/27 05:21:21;;;;;;;5.32;2.20;;;;;;;4.24;100.00;101923.16;10409208;28;20049;-67
2022/11/27 05:26:23;;;;;;;5.82;2.50;;;;;;;4.27;100.00;101918.00;10411659;28;20049;-66
2022/11/27 05:31:25;;;;;;;6.10;2.70;;;;;;;4.30;100.00;101905.09;10411652;28;20045;-68
2022/11/27 05:36:30;;;;;;;6.88;2.60;;;;;;;4.28;100.00;101906.81;10411481;28;20310;-66
2022/11/27 05:41:33;;;;;;;5.97;2.78;;;;;;;4.29;100.00;101907.66;10411039;28;20123;-67
2022/11/27 05:46:36;;;;;;;4.82;2.30;;;;;;;4.34;100.00;101895.59;10411076;28;20639;-67
2022/11/27 05:51:39;;;;;;;6.65;2.78;;;;;;;4.33;100.00;101888.72;10408622;28;20119;-67
2022/11/27 05:56:41;;;;;;;5.22;2.58;;;;;;;4.31;100.00;101882.69;10411355;28;20518;-66
2022/11/27 06:01:42;;;;;;;7.93;3.03;;;;;;;4.30;100.00;101862.88;10411451;28;20146;-68
2022/11/27 06:06:45;;;;;;;4.78;2.40;;;;;;;4.34;100.00;101872.34;10411047;28;20376;-65
2022/11/27 06:11:47;;;;;;;4.28;2.83;;;;;;;4.35;100.00;101876.66;10410439;28;20498;-65
2022/11/27 06:16:49;;;;;;;5.60;3.17;;;;;;;4.36;100.00;101868.91;10410618;28;20080;-67
2022/11/27 06:21:52;;;;;;;7.25;3.17;;;;;;;4.38;100.00;101866.34;10408087;28;20310;-66
2022/11/27 06:26:53;;;;;;;11.15;2.70;;;;;;;4.36;100.00;101858.59;10410233;28;20114;-68
2022/11/27 06:31:55;;;;;;;6.00;3.10;;;;;;;4.38;100.00;101856.00;10415262;28;20618;-66
2022/11/27 06:36:58;;;;;;;5.27;2.63;;;;;;;4.40;100.00;101853.38;10417791;28;20304;-66
2022/11/27 06:42:00;;;;;;;8.02;2.40;;;;;;;4.42;100.00;101857.72;10417404;28;20785;-67
2022/11/27 06:47:01;;;;;;;6.50;2.87;;;;;;;4.43;100.00;101863.72;10416222;28;20111;-67
2022/11/27 06:52:05;;;;;;;6.68;2.90;;;;;;;4.38;100.00;101862.00;10415362;28;20057;-67
2022/11/27 06:57:06;;;;;;;4.70;2.90;;;;;;;4.38;100.00;101862.00;10416580;28;20106;-68
2022/11/27 07:02:14;;;;;;;4.73;3.13;;;;;;;4.37;100.00;101847.38;10416630;28;20461;-66
2022/11/27 07:07:17;;;;;;;5.50;2.90;;;;;;;4.31;100.00;101849.94;10416216;28;20300;-67
2022/11/27 07:12:18;;;;;;;4.30;2.80;;;;;;;4.26;100.00;101831.00;10415948;28;20045;-66
2022/11/27 07:17:20;;;;;;;4.90;2.70;;;;;;;4.21;100.00;101812.06;10415836;28;20057;-66
2022/11/27 07:22:23;;;;;;;5.20;2.35;;;;;;;4.14;100.00;101811.19;10413613;28;20045;-66
2022/11/27 07:27:26;;;;;;;3.00;2.40;;;;;;;4.13;100.00;101793.97;10415607;28;20076;-66
2022/11/27 07:32:28;;;;;;;10.40;3.42;;;;;;;4.11;100.00;101806.03;10415288;28;20067;-65
2022/11/27 07:37:32;;;;;;;5.03;2.63;;;;;;;4.14;100.00;101789.66;10415754;28;20057;-66
2022/11/27 07:42:34;;;;;;;7.90;3.13;;;;;;;4.13;100.00;101793.97;10414615;28;20796;-66
2022/11/27 07:47:38;;;;;;;5.90;2.70;;;;;;;4.11;100.00;101793.97;10415616;28;20049;-66
2022/11/27 07:52:41;;;;;;;3.58;3.08;;;;;;;4.15;100.00;101775.88;10412001;28;20307;-67
2022/11/27 07:57:43;;;;;;;16.33;4.28;;;;;;;4.15;100.00;101770.72;10410652;28;20618;-68
2022/11/27 08:02:44;;;;;;;4.13;3.20;;;;;;;4.16;100.00;101752.63;10404759;28;20053;-66
2022/11/27 08:07:47;;;;;;;7.85;2.20;;;;;;;4.20;100.00;101753.47;10414134;28;20058;-67
2022/11/27 08:12:49;;;;;;;14.23;4.07;;;;;;;4.28;100.00;101740.56;10413336;28;20354;-70
2022/11/27 08:17:51;;;;;;;8.93;3.78;;;;;;;4.30;100.00;101738.81;10413560;28;20423;-66
2022/11/27 08:22:54;;;;;;;6.97;3.90;;;;;;;4.34;100.00;101741.41;10410499;28;20056;-66
2022/11/27 08:27:56;;;;;;;9.10;4.07;;;;;;;4.50;100.00;101736.19;10410042;28;20045;-67
2022/11/27 08:32:57;;;;;;;14.18;5.13;;;;;;;4.61;100.00;101744.78;10412362;28;20057;-67
2022/11/27 08:38:02;;;;;;;4.88;3.55;;;;;;;4.61;100.00;101739.63;10413204;28;20110;-66
2022/11/27 08:43:03;;;;;;;4.95;3.72;;;;;;;4.68;100.00;101735.28;10412536;28;20045;-66
2022/11/27 08:48:05;;;;;;;7.87;4.83;;;;;;;4.77;100.00;101739.56;10412724;28;20099;-67
2022/11/27 08:53:09;;;;;;;13.05;5.28;;;;;;;4.86;100.00;101741.28;10409343;28;20402;-72
2022/11/27 08:58:10;;;;;;;6.30;4.85;;;;;;;4.93;100.00;101737.75;10412241;28;20092;-66
2022/11/27 09:03:16;;;;;;;9.73;5.20;;;;;;;5.04;100.00;101748.09;10412093;28;20045;-69
2022/11/27 09:08:20;;;;;;;11.65;4.78;;;;;;;5.09;100.00;101746.31;10411821;28;20079;-69
2022/11/27 09:13:21;;;;;;;14.55;5.43;;;;;;;5.06;100.00;101741.16;10411847;28;20086;-68
2022/11/27 09:18:23;;;;;;;10.60;5.15;;;;;;;5.12;100.00;101735.97;10411729;28;20063;-67
2022/11/27 09:23:27;;;;;;;8.48;5.30;;;;;;;5.11;100.00;101742.03;10408964;28;20068;-68
2022/11/27 09:28:30;;;;;;;15.88;5.32;;;;;;;5.13;100.00;101740.28;10411704;28;20049;-67
2022/11/27 09:33:36;;;;;;;10.52;5.28;;;;;;;5.12;100.00;101741.16;10411519;28;20122;-66
2022/11/27 09:38:39;;;;;;;6.55;5.07;;;;;;;5.17;100.00;101748.91;10411440;28;20118;-67
2022/11/27 09:43:50;;;;;;;10.20;6.45;;;;;;;5.18;100.00;101736.78;10411047;28;20045;-66
2022/11/27 09:48:55;;;;;;;14.23;5.35;;;;;;;5.26;100.00;101735.03;10411063;28;20057;-66
2022/11/27 09:54:08;;;;;;;9.15;5.03;;;;;;;5.14;100.00;101726.44;10408864;28;20042;-66
2022/11/27 09:59:18;;;;;;;12.02;5.20;;;;;;;5.19;100.00;101717.81;10410870;28;20049;-67
2022/11/27 10:04:21;;;;;;;8.63;5.30;;;;;;;5.22;100.00;101707.44;10414078;28;20076;-67
2022/11/27 10:09:39;;;;;;;13.23;5.47;;;;;;;5.28;100.00;101703.06;10418849;28;20475;-66
2022/11/27 10:15:06;;;;;;;9.68;4.65;;;;;;;5.27;100.00;101697.94;10418697;28;20045;-67
2022/11/27 10:20:27;;;;;;;8.20;5.45;;;;;;;5.31;100.00;101688.41;10418673;28;20052;-67
2022/11/27 10:25:41;;;;;;;9.15;5.65;;;;;;;5.43;100.00;101679.72;10415452;28;20147;-66
2022/11/27 10:30:51;;;;;;;10.50;5.22;;;;;;;5.43;100.00;101677.13;10417906;28;20076;-67
2022/11/27 10:35:54;;;;;;;13.07;6.30;;;;;;;5.50;100.00;101679.63;10417291;28;20045;-67
2022/11/27 10:41:11;;;;;;;11.35;5.47;;;;;;;5.52;100.00;101662.38;10418264;28;20427;-66
2022/11/27 10:46:16;;;;;;;11.90;5.68;;;;;;;5.51;100.00;101659.81;10417690;28;20071;-67
2022/11/27 10:51:24;;;;;;;10.45;5.55;;;;;;;5.69;100.00;101657.91;10415066;28;20123;-69
2022/11/27 10:56:50;;;;;;;9.25;5.28;;;;;;;5.61;100.00;101648.47;10416691;28;20492;-69
2022/11/27 11:01:53;;;;;;;9.82;5.40;;;;;;;5.73;100.00;101644.06;10416443;28;20095;-68
2022/11/27 11:06:54;;;;;;;9.18;6.13;;;;;;;5.76;100.00;101628.50;10416873;28;20071;-67
2022/11/27 11:12:08;;;;;;;13.15;6.60;;;;;;;5.86;100.00;101622.38;10416477;28;20046;-67
2022/11/27 11:17:17;;;;;;;10.65;6.28;;;;;;;5.87;100.00;101605.94;10415309;28;20072;-66
2022/11/27 11:22:20;;;;;;;7.70;6.13;;;;;;;5.89;100.00;101596.41;10413396;28;20060;-66
2022/11/27 11:27:29;;;;;;;2.15;1.92;;;;;;;5.79;100.00;101592.22;10415824;28;20049;-68
2022/11/27 11:32:35;;;;;;;7.78;5.72;;;;;;;5.90;100.00;101580.00;10415618;28;20103;-66
2022/11/27 11:37:44;;;;;;;6.75;5.55;;;;;;;5.92;100.00;101570.47;10415061;28;20054;-66
2022/11/27 11:42:57;;;;;;;4.63;3.92;;;;;;;5.87;100.00;101553.25;10414775;28;20115;-66
2022/11/27 11:48:02;;;;;;;13.68;5.97;;;;;;;5.98;100.00;101551.41;10414794;28;20049;-65
2022/11/27 11:53:15;;;;;;;8.45;6.03;;;;;;;6.02;100.00;101539.28;10412555;28;20076;-67
2022/11/27 11:58:47;;;;;;;10.55;5.93;;;;;;;6.12;100.00;101529.69;10414470;28;20088;-65
2022/11/27 12:04:07;;;;;;;10.27;6.03;;;;;;;6.12;100.00;101522.75;10414561;28;20056;-65
2022/11/27 12:09:30;;;;;;;5.55;4.22;;;;;;;6.17;100.00;101499.38;10413972;28;20296;-68
2022/11/27 12:14:45;;;;;;;7.95;5.97;;;;;;;6.22;100.00;101491.56;10413813;28;20049;-65
2022/11/27 12:20:14;;;;;;;11.88;6.72;;;;;;;6.37;100.00;101475.75;10413948;28;20049;-65
2022/11/27 12:25:32;;;;;;;9.65;6.53;;;;;;;6.42;100.00;101479.16;10410732;28;20505;-67
2022/11/27 12:30:48;;;;;;;13.23;7.18;;;;;;;6.49;100.00;101448.78;10412277;28;20061;-64
2022/11/27 12:36:05;;;;;;;9.95;6.93;;;;;;;6.47;100.00;101454.91;10412933;28;20446;-65
2022/11/27 12:41:36;;;;;;;13.18;6.38;;;;;;;6.46;100.00;101448.84;10413106;28;20053;-64
2022/11/27 12:46:57;;;;;;;12.10;6.68;;;;;;;6.42;100.00;101437.66;10412782;28;20469;-64
2022/11/27 12:52:11;;;;;;;11.52;6.10;;;;;;;6.48;100.00;101444.50;10410310;28;20056;-65
2022/11/27 12:57:20;;;;;;;12.48;7.35;;;;;;;6.53;100.00;101423.66;10412636;28;20099;-65
2022/11/27 13:02:33;;;;;;;8.75;6.78;;;;;;;6.48;100.00;101433.25;10411857;28;20602;-65
2022/11/27 13:07:44;;;;;;;11.90;7.65;;;;;;;6.47;100.00;101403.03;10412454;28;20057;-65
2022/11/27 13:12:58;;;;;;;13.18;6.60;;;;;;;6.48;100.00;101404.75;10411612;28;20049;-65
2022/11/27 13:18:17;;;;;;;12.07;6.78;;;;;;;6.50;100.00;101418.56;10411492;28;20519;-65
2022/11/27 13:23:19;;;;;;;10.85;6.20;;;;;;;6.49;100.00;101412.50;10406449;28;20053;-65
2022/11/27 13:28:30;;;;;;;11.85;6.68;;;;;;;6.52;100.00;101406.41;10412059;28;20555;-66
2022/11/27 13:33:41;;;;;;;12.40;6.93;;;;;;;6.39;100.00;101401.41;10411504;28;20080;-64
2022/11/27 13:38:44;;;;;;;9.57;6.65;;;;;;;6.41;100.00;101399.66;10414169;28;20091;-66
2022/11/27 13:43:49;;;;;;;13.48;8.30;;;;;;;6.38;100.00;101402.31;10419783;28;20422;-64
2022/11/27 13:48:56;;;;;;;13.38;7.85;;;;;;;6.37;100.00;101397.97;10420295;28;20056;-64
2022/11/27 13:54:10;;;;;;;10.32;6.50;;;;;;;6.33;100.00;101380.75;10416369;28;20045;-66
2022/11/27 13:59:15;;;;;;;11.20;7.10;;;;;;;6.22;100.00;101369.72;10418503;28;20091;-64
2022/11/27 14:04:18;;;;;;;14.88;7.55;;;;;;;6.18;100.00;101377.56;10417821;28;20377;-65
2022/11/27 14:09:31;;;;;;;10.40;7.50;;;;;;;6.15;100.00;101368.94;10417520;28;20045;-64
2022/11/27 14:14:33;;;;;;;13.05;7.72;;;;;;;5.99;100.00;101363.13;10417324;28;20050;-64
2022/11/27 14:19:43;;;;;;;12.95;8.32;;;;;;;5.91;100.00;101348.53;10416831;28;20110;-66
2022/11/27 14:24:54;;;;;;;13.05;7.93;;;;;;;5.93;100.00;101335.56;10410076;28;20045;-65
2022/11/27 14:29:56;;;;;;;11.95;7.40;;;;;;;5.97;100.00;101321.69;10417067;28;20456;-64
2022/11/27 14:35:00;;;;;;;11.93;6.25;;;;;;;5.93;100.00;101315.69;10416550;28;20092;-65
2022/11/27 14:40:14;;;;;;;14.27;7.65;;;;;;;6.02;100.00;101319.88;10416395;28;20068;-65
2022/11/27 14:45:20;;;;;;;13.10;7.38;;;;;;;6.09;100.00;101325.84;10415625;28;20107;-65
2022/11/27 14:50:23;;;;;;;9.32;7.00;;;;;;;6.20;100.00;101311.88;10413813;28;20504;-66
2022/11/27 14:55:27;;;;;;;12.05;7.68;;;;;;;6.12;100.00;101305.06;10412979;28;20103;-65
2022/11/27 15:00:31;;;;;;;8.75;5.97;;;;;;;6.06;100.00;101287.03;10415339;28;20068;-65
2022/11/27 15:05:38;;;;;;;10.30;6.60;;;;;;;6.02;100.00;101285.34;10415280;28;20075;-66
2022/11/27 15:10:41;;;;;;;9.90;6.43;;;;;;;6.00;100.00;101279.31;10415082;28;20068;-67
2022/11/27 15:15:54;;;;;;;10.43;5.95;;;;;;;6.09;100.00;101274.00;10414533;28;20100;-64
2022/11/27 15:20:58;;;;;;;9.18;6.22;;;;;;;6.05;100.00;101259.41;10415675;28;20045;-65
2022/11/27 15:26:11;;;;;;;11.32;6.97;;;;;;;6.12;100.00;101260.19;10413244;28;20053;-65
2022/11/27 15:31:28;;;;;;;11.95;6.70;;;;;;;5.99;100.00;101246.53;10415690;28;20545;-65
2022/11/27 15:36:48;;;;;;;8.45;6.32;;;;;;;6.05;100.00;101233.50;10415309;28;20049;-65
2022/11/27 15:41:53;;;;;;;11.27;6.13;;;;;;;5.99;100.00;101231.00;10415287;28;20064;-64
2022/11/27 15:46:58;;;;;;;8.75;5.28;;;;;;;6.05;100.00;101236.94;10414819;28;20045;-66
2022/11/27 15:52:01;;;;;;;10.02;6.30;;;;;;;6.02;100.00;101228.34;10412393;28;20531;-65
2022/11/27 15:57:03;;;;;;;10.60;5.75;;;;;;;5.96;100.00;101228.44;10414659;28;20045;-65
2022/11/27 16:02:04;;;;;;;3.67;3.20;;;;;;;6.10;100.00;101221.31;10413859;28;20061;-67
2022/11/27 16:07:09;;;;;;;8.18;5.28;;;;;;;6.11;100.00;101199.72;10414479;28;20098;-64
2022/11/27 16:12:11;;;;;;;9.65;6.00;;;;;;;6.09;100.00;101180.72;10413840;28;20045;-65
2022/11/27 16:17:14;;;;;;;5.93;5.33;;;;;;;6.09;100.00;101185.06;10413989;28;20068;-67
2022/11/27 16:22:17;;;;;;;8.60;6.22;;;;;;;6.25;100.00;101180.44;10411292;28;20310;-66
2022/11/27 16:27:21;;;;;;;14.38;8.85;;;;;;;6.29;100.00;101176.91;10413112;28;20445;-65
2022/11/27 16:32:23;;;;;;;13.73;7.95;;;;;;;6.23;100.00;101174.44;10413132;28;20061;-66
2022/11/27 16:37:26;;;;;;;10.93;6.45;;;;;;;6.18;100.00;101165.03;10414622;28;20061;-65
2022/11/27 16:42:28;;;;;;;12.57;6.63;;;;;;;6.25;100.00;101159.72;10413445;28;20493;-65
2022/11/27 16:47:31;;;;;;;12.43;5.88;;;;;;;6.17;100.00;101152.09;10413016;28;20064;-71
2022/11/27 16:52:34;;;;;;;8.52;5.93;;;;;;;6.12;100.00;101149.56;10411011;28;20076;-65
2022/11/27 16:57:37;;;;;;;9.13;5.65;;;;;;;6.21;100.00;101137.31;10412678;28;20077;-68
2022/11/27 17:02:39;;;;;;;8.43;5.13;;;;;;;6.14;100.00;101134.88;10412470;28;20493;-64
2022/11/27 17:07:42;;;;;;;9.35;5.63;;;;;;;6.16;100.00;101129.66;10412375;28;20045;-65
2022/11/27 17:12:44;;;;;;;7.50;5.05;;;;;;;6.04;100.00;101122.97;10411455;28;20053;-65
2022/11/27 17:17:45;;;;;;;10.43;5.30;;;;;;;6.10;100.00;101124.59;10411911;28;20428;-65
2022/11/27 17:22:49;;;;;;;9.07;5.18;;;;;;;6.14;100.00;101116.72;10409848;28;20311;-68
2022/11/27 17:27:51;;;;;;;5.53;3.85;;;;;;;6.13;100.00;101108.97;10411911;28;20049;-67
2022/11/27 17:32:55;;;;;;;8.85;6.20;;;;;;;6.08;100.00;101101.28;10411439;28;20482;-67
2022/11/27 17:37:59;;;;;;;8.90;5.13;;;;;;;6.04;100.00;101105.69;10411611;28;20062;-65
2022/11/27 17:43:01;;;;;;;6.10;3.22;;;;;;;5.89;100.00;101101.59;10411838;28;20057;-68
2022/11/27 17:48:02;;;;;;;10.93;5.50;;;;;;;5.90;100.00;101092.97;10411553;28;20115;-66
2022/11/27 17:53:05;;;;;;;7.97;5.95;;;;;;;5.78;100.00;101082.81;10409356;28;20045;-66
2022/11/27 17:58:07;;;;;;;12.50;6.55;;;;;;;5.71;100.00;101073.47;10408532;28;20069;-67
2022/11/27 18:03:10;;;;;;;7.30;6.03;;;;;;;5.71;100.00;101068.28;10410364;28;20489;-66
2022/11/27 18:08:14;;;;;;;9.70;6.30;;;;;;;5.58;100.00;101058.13;10411011;28;20115;-68
2022/11/27 18:13:16;;;;;;;10.07;6.45;;;;;;;5.55;100.00;101055.63;10410489;28;20099;-68
2022/11/27 18:18:19;;;;;;;8.50;6.20;;;;;;;5.53;100.00;101047.03;10410911;28;20054;-68
2022/11/27 18:23:23;;;;;;;6.03;4.50;;;;;;;5.51;100.00;101039.28;10408834;28;20327;-67
2022/11/27 18:28:24;;;;;;;8.98;6.13;;;;;;;5.52;100.00;101030.66;10418306;28;20066;-68
2022/11/27 18:33:26;;;;;;;9.27;6.28;;;;;;;5.54;100.00;101025.41;10417698;28;20509;-71
2022/11/27 18:38:32;;;;;;;7.18;5.43;;;;;;;5.56;100.00;101026.25;10418189;28;20060;-74
2022/11/27 18:43:35;;;;;;;10.00;6.38;;;;;;;5.53;100.00;101018.53;10417776;28;20046;-72
2022/11/27 18:48:38;;;;;;;9.00;6.10;;;;;;;5.57;100.00;101006.41;10417684;28;20053;-72
2022/11/27 18:53:42;;;;;;;9.43;5.20;;;;;;;5.47;100.00;101001.38;10415068;28;20095;-74
2022/11/27 18:58:45;;;;;;;7.50;4.68;;;;;;;5.47;100.00;101001.38;10413996;28;20100;-67
2022/11/27 19:03:48;;;;;;;9.48;6.47;;;;;;;5.46;100.00;100998.81;10413978;28;20581;-67
2022/11/27 19:08:52;;;;;;;11.15;6.32;;;;;;;5.39;100.00;100991.19;10416835;28;20053;-69
2022/11/27 19:13:56;;;;;;;11.30;6.82;;;;;;;5.39;100.00;100986.00;10417040;28;20116;-68
2022/11/27 19:19:02;;;;;;;8.48;6.22;;;;;;;5.33;100.00;100973.16;10416646;28;20060;-68
2022/11/27 19:24:06;;;;;;;8.00;5.93;;;;;;;5.33;100.00;100973.16;10414129;28;20110;-68
2022/11/27 19:29:10;;;;;;;7.82;4.78;;;;;;;5.37;100.00;100963.63;10416161;28;20053;-73
2022/11/27 19:34:13;;;;;;;8.57;6.40;;;;;;;5.31;100.00;100974.94;10416442;28;20081;-68
2022/11/27 19:39:16;;;;;;;9.95;6.32;;;;;;;5.33;100.00;100960.22;10415373;28;20503;-68
2022/11/27 19:44:33;;;;;;;5.60;3.78;;;;;;;5.37;100.00;100942.94;10414615;28;20489;-69
2022/11/27 19:49:35;;;;;;;8.60;5.50;;;;;;;5.42;100.00;100938.50;10415205;28;20112;-74
2022/11/27 19:54:39;;;;;;;10.32;5.93;;;;;;;5.43;100.00;100929.00;10412980;28;20083;-67
2022/11/27 19:59:41;;;;;;;8.95;6.03;;;;;;;5.45;100.00;100919.47;10414986;28;20104;-68
2022/11/27 20:04:43;;;;;;;9.07;6.15;;;;;;;5.38;100.00;100908.38;10414690;28;20066;-67
2022/11/27 20:09:48;;;;;;;9.05;6.10;;;;;;;5.34;100.00;100902.41;10414548;28;20061;-73
2022/11/27 20:14:51;;;;;;;10.93;5.75;;;;;;;5.28;100.00;100899.94;10414536;28;20050;-73
2022/11/27 20:19:53;;;;;;;9.18;5.80;;;;;;;5.24;100.00;100891.38;10413431;28;20056;-73
2022/11/27 20:24:58;;;;;;;9.38;5.95;;;;;;;5.20;100.00;100884.56;10410864;28;20053;-72
2022/11/27 20:29:59;;;;;;;3.60;2.78;;;;;;;5.18;100.00;100875.13;10412468;28;20107;-72
2022/11/27 20:35:01;;;;;;;7.35;5.55;;;;;;;5.18;100.00;100875.13;10412557;28;20465;-72
2022/11/27 20:40:10;;;;;;;11.40;6.70;;;;;;;5.21;100.00;100875.06;10412165;28;20397;-74
2022/11/27 20:45:13;;;;;;;9.57;6.32;;;;;;;5.21;100.00;100870.75;10412066;28;20095;-72
2022/11/27 20:50:15;;;;;;;11.15;5.82;;;;;;;5.23;100.00;100868.13;10411010;28;20091;-72
2022/11/27 20:55:20;;;;;;;9.32;5.30;;;;;;;5.21;100.00;100851.78;10410120;28;20186;-74
2022/11/27 21:00:22;;;;;;;9.98;6.25;;;;;;;5.20;100.00;100844.91;10412200;28;20057;-74
2022/11/27 21:05:24;;;;;;;7.38;5.50;;;;;;;5.18;100.00;100832.00;10412033;28;20099;-73
2022/11/27 21:10:27;;;;;;;5.38;3.90;;;;;;;5.24;100.00;100828.44;10412690;28;20065;-73
2022/11/27 21:15:31;;;;;;;10.93;6.60;;;;;;;5.35;100.00;100825.63;10412968;28;20079;-73
2022/11/27 21:20:33;;;;;;;12.23;6.97;;;;;;;5.38;100.00;100821.22;10402286;28;20050;-72
2022/11/27 21:25:41;;;;;;;11.25;6.10;;;;;;;5.47;100.00;100809.00;10387484;28;20054;-74
2022/11/27 21:30:43;;;;;;;12.75;6.43;;;;;;;5.60;100.00;100805.25;10411546;28;20397;-73
2022/11/27 21:35:46;;;;;;;9.60;5.85;;;;;;;5.54;100.00;100797.59;10412375;28;20042;-73
2022/11/27 21:40:49;;;;;;;11.52;6.07;;;;;;;5.73;100.00;100784.25;10411663;28;20123;-72
2022/11/27 21:45:53;;;;;;;9.35;5.78;;;;;;;5.83;100.00;100770.22;10411185;28;20073;-67
2022/11/27 21:51:00;;;;;;;8.63;6.40;;;;;;;5.79;100.00;100778.94;10411700;28;20065;-66
2022/11/27 21:56:06;;;;;;;10.00;5.57;;;;;;;5.86;100.00;100767.53;10409303;28;20178;-66
2022/11/27 22:01:14;;;;;;;7.63;5.75;;;;;;;5.83;100.00;100757.25;10416865;28;20057;-66
2022/11/27 22:06:18;;;;;;;9.02;5.80;;;;;;;5.87;100.00;100751.13;10420064;28;20046;-66
2022/11/27 22:11:25;;;;;;;7.47;5.45;;;;;;;5.84;100.00;100745.13;10419971;28;20045;-65
2022/11/27 22:16:31;;;;;;;11.77;6.80;;;;;;;5.76;100.00;100747.94;10419718;28;20053;-70
2022/11/27 22:21:33;;;;;;;11.73;6.00;;;;;;;5.92;100.00;100744.06;10417808;28;20715;-67
2022/11/27 22:26:37;;;;;;;7.60;4.25;;;;;;;6.05;100.00;100729.09;10423703;28;20121;-72
2022/11/27 22:31:39;;;;;;;11.48;6.38;;;;;;;6.04;100.00;100737.78;10424726;28;20061;-72
2022/11/27 22:36:42;;;;;;;10.00;5.65;;;;;;;6.00;100.00;100735.25;10419396;28;20109;-71
2022/11/27 22:41:45;;;;;;;11.70;5.65;;;;;;;6.13;100.00;100715.13;10419502;28;20053;-73
2022/11/27 22:46:49;;;;;;;9.90;5.68;;;;;;;6.17;100.00;100722.75;10419027;28;20046;-71
2022/11/27 22:51:50;;;;;;;7.75;5.72;;;;;;;6.16;100.00;100721.06;10416627;28;20497;-71
2022/11/27 22:56:53;;;;;;;10.15;6.57;;;;;;;6.09;100.00;100703.13;10418636;28;20045;-70
2022/11/27 23:01:55;;;;;;;7.15;5.30;;;;;;;6.10;100.00;100705.69;10418367;28;20096;-71
2022/11/27 23:06:57;;;;;;;6.68;4.95;;;;;;;6.16;100.00;100702.91;10418272;28;20092;-71
2022/11/27 23:12:00;;;;;;;11.00;4.88;;;;;;;6.23;100.00;100702.75;10417005;28;20050;-71
2022/11/27 23:17:02;;;;;;;9.38;4.85;;;;;;;6.24;100.00;100696.69;10417741;28;20115;-71
2022/11/27 23:22:04;;;;;;;5.43;4.93;;;;;;;6.24;100.00;100696.69;10415570;28;20054;-70